Time;durP1;ratioP1;P1;durP2;ratioP2;P2;SDS_P1;SDS_P2;PMS_P1;PMS_P2;Temp;Humidity;BMP_temperature;BMP_pressure;BME280_temperature;BME280_humidity;BME280_pressure;Samples;Min_cycle;Max_cycle;Signal;HPM_P1;HPM_P2
2023/05/06 00:02:16;;;;;;;5.33;4.77;;;23.10;45.40;;;;;;4950237;29;20494;-78
2023/05/06 00:04:44;;;;;;;7.13;5.43;;;23.10;45.40;;;;;;4951328;29;20451;-78
2023/05/06 00:07:12;;;;;;;7.43;5.37;;;23.00;45.50;;;;;;4949913;29;20471;-78
2023/05/06 00:09:41;;;;;;;5.80;5.20;;;23.00;45.50;;;;;;4950891;29;20451;-78
2023/05/06 00:12:10;;;;;;;7.33;5.00;;;23.00;45.60;;;;;;4945611;28;20471;-78
2023/05/06 00:14:38;;;;;;;5.53;5.00;;;23.00;45.60;;;;;;4947517;29;20451;-78
2023/05/06 00:17:06;;;;;;;5.47;4.67;;;23.00;45.60;;;;;;4953282;29;20454;-78
2023/05/06 00:19:33;;;;;;;5.47;4.50;;;23.00;45.70;;;;;;4952352;29;20462;-77
2023/05/06 00:22:01;;;;;;;8.10;5.90;;;23.00;45.80;;;;;;4944171;29;20471;-78
2023/05/06 00:24:30;;;;;;;11.70;8.57;;;23.00;45.80;;;;;;4952216;29;20447;-77
2023/05/06 00:27:00;;;;;;;9.87;7.73;;;23.00;45.70;;;;;;4947767;29;20475;-78
2023/05/06 00:29:29;;;;;;;7.60;5.97;;;23.00;45.80;;;;;;4947672;29;20458;-78
2023/05/06 00:31:56;;;;;;;11.77;8.37;;;22.90;45.80;;;;;;4952899;29;20471;-78
2023/05/06 00:34:25;;;;;;;10.50;8.37;;;22.90;45.90;;;;;;4952843;28;20467;-78
2023/05/06 00:36:53;;;;;;;14.47;10.07;;;22.90;46.00;;;;;;4947130;29;20448;-78
2023/05/06 00:39:21;;;;;;;12.47;9.60;;;22.90;45.90;;;;;;4940602;29;20455;-78
2023/05/06 00:41:50;;;;;;;11.60;8.20;;;22.90;46.00;;;;;;4948548;28;20483;-78
2023/05/06 00:44:19;;;;;;;11.50;8.73;;;22.90;46.00;;;;;;4944316;29;20451;-78
2023/05/06 00:46:47;;;;;;;12.63;9.53;;;22.90;46.10;;;;;;4950545;29;20482;-78
2023/05/06 00:49:15;;;;;;;17.30;9.40;;;22.90;46.10;;;;;;4943874;29;20520;-78
2023/05/06 00:51:43;;;;;;;12.60;9.37;;;22.80;46.00;;;;;;4948085;29;20472;-78
2023/05/06 00:54:11;;;;;;;14.43;8.93;;;22.80;46.20;;;;;;4939377;29;20458;-78
2023/05/06 00:56:39;;;;;;;11.03;8.50;;;22.80;46.20;;;;;;4937283;29;20451;-77
2023/05/06 00:59:07;;;;;;;13.17;10.10;;;22.70;46.10;;;;;;4946496;29;20451;-78
2023/05/06 01:01:36;;;;;;;13.73;11.00;;;22.80;46.30;;;;;;4945728;28;20587;-78
2023/05/06 01:04:06;;;;;;;13.80;10.27;;;22.80;46.40;;;;;;4936221;29;20452;-78
2023/05/06 01:06:37;;;;;;;14.20;10.93;;;22.70;46.30;;;;;;4949463;29;20443;-77
2023/05/06 01:09:10;;;;;;;12.37;10.20;;;22.70;46.30;;;;;;4951315;29;20454;-79
2023/05/06 01:11:41;;;;;;;12.90;9.80;;;22.70;46.40;;;;;;4945017;29;20473;-78
2023/05/06 01:14:13;;;;;;;13.80;10.43;;;22.70;46.30;;;;;;4939020;29;20458;-78
2023/05/06 01:16:43;;;;;;;13.00;9.23;;;22.60;46.20;;;;;;4945126;29;20451;-77
2023/05/06 01:19:13;;;;;;;15.73;10.83;;;22.60;46.40;;;;;;4954745;28;20447;-77
2023/05/06 01:21:41;;;;;;;16.53;11.33;;;22.60;46.50;;;;;;4947043;29;20463;-77
2023/05/06 01:24:10;;;;;;;13.00;10.50;;;22.60;46.50;;;;;;4943009;29;20440;-77
2023/05/06 01:26:41;;;;;;;13.70;10.40;;;22.60;46.50;;;;;;4951333;28;20447;-78
2023/05/06 01:29:09;;;;;;;15.03;9.90;;;22.60;46.40;;;;;;4939210;29;20475;-78
2023/05/06 01:31:41;;;;;;;15.67;10.87;;;22.60;46.50;;;;;;4945565;29;20471;-78
2023/05/06 01:34:15;;;;;;;11.37;8.90;;;22.60;46.60;;;;;;4945529;28;20452;-78
2023/05/06 01:36:47;;;;;;;16.43;10.93;;;22.60;46.60;;;;;;4943813;29;20452;-79
2023/05/06 01:39:18;;;;;;;16.77;10.70;;;22.60;46.60;;;;;;4955052;29;20447;-78
2023/05/06 01:41:47;;;;;;;12.63;9.53;;;22.50;46.50;;;;;;4945121;29;20482;-79
2023/05/06 01:44:16;;;;;;;18.23;10.60;;;22.50;46.60;;;;;;4946871;28;20458;-78
2023/05/06 01:46:44;;;;;;;13.17;10.00;;;22.50;46.70;;;;;;4948571;28;20504;-78
2023/05/06 01:49:12;;;;;;;12.73;9.83;;;22.50;46.80;;;;;;4938561;29;20479;-79
2023/05/06 01:51:40;;;;;;;12.50;9.97;;;22.50;46.70;;;;;;4943134;29;20462;-78
2023/05/06 01:54:08;;;;;;;11.80;9.30;;;22.50;46.80;;;;;;4947559;28;20454;-78
2023/05/06 01:56:38;;;;;;;14.83;9.27;;;22.50;46.80;;;;;;4946103;29;20459;-79
2023/05/06 01:59:06;;;;;;;11.93;9.00;;;22.50;46.90;;;;;;4941051;29;20447;-78
2023/05/06 02:01:34;;;;;;;11.47;9.30;;;22.40;46.80;;;;;;4943815;29;20467;-79
2023/05/06 02:04:02;;;;;;;11.73;9.07;;;22.40;46.80;;;;;;4943337;29;20447;-78
2023/05/06 02:06:31;;;;;;;10.77;9.13;;;22.40;47.00;;;;;;4938297;29;20444;-78
2023/05/06 02:08:59;;;;;;;10.53;8.77;;;22.40;47.00;;;;;;4950085;29;20471;-79
2023/05/06 02:11:27;;;;;;;10.63;8.43;;;22.40;47.00;;;;;;4954859;29;20458;-78
2023/05/06 02:13:57;;;;;;;16.90;9.07;;;22.40;47.00;;;;;;4954919;29;20475;-78
2023/05/06 02:16:27;;;;;;;9.17;8.13;;;22.40;47.10;;;;;;4956261;29;20443;-78
2023/05/06 02:18:56;;;;;;;11.43;8.13;;;22.40;47.10;;;;;;4948478;28;20450;-78
2023/05/06 02:21:24;;;;;;;11.20;9.07;;;22.30;47.00;;;;;;4955746;29;20868;-79
2023/05/06 02:23:52;;;;;;;8.47;7.57;;;22.30;47.10;;;;;;4954766;29;20463;-77
2023/05/06 02:26:20;;;;;;;8.50;7.53;;;22.30;47.20;;;;;;4947683;29;20458;-78
2023/05/06 02:28:48;;;;;;;9.93;8.43;;;22.30;47.20;;;;;;4935866;29;20478;-78
2023/05/06 02:31:18;;;;;;;11.20;7.80;;;22.30;47.20;;;;;;4936281;29;20452;-78
2023/05/06 02:33:46;;;;;;;9.23;7.70;;;22.30;47.20;;;;;;4945344;29;20452;-79
2023/05/06 02:36:14;;;;;;;12.07;8.57;;;22.30;47.20;;;;;;4944360;29;20452;-78
2023/05/06 02:38:42;;;;;;;13.83;7.70;;;22.30;47.20;;;;;;4940473;29;20452;-79
2023/05/06 02:41:10;;;;;;;11.33;7.90;;;22.20;47.20;;;;;;4949544;29;20462;-78
2023/05/06 02:43:38;;;;;;;11.47;8.03;;;22.20;47.20;;;;;;4942683;29;20452;-78
2023/05/06 02:46:06;;;;;;;8.90;7.93;;;22.20;47.20;;;;;;4944137;29;20547;-78
2023/05/06 02:48:35;;;;;;;8.90;7.70;;;22.30;47.20;;;;;;4949054;29;20468;-79
2023/05/06 02:51:04;;;;;;;9.67;7.53;;;22.20;47.30;;;;;;4950917;29;20455;-78
2023/05/06 02:53:32;;;;;;;9.47;7.90;;;22.20;47.40;;;;;;4955191;29;20467;-78
2023/05/06 02:55:59;;;;;;;11.73;7.20;;;22.20;47.40;;;;;;4944355;29;20559;-79
2023/05/06 02:58:28;;;;;;;9.13;7.77;;;22.20;47.40;;;;;;4954526;29;20532;-77
2023/05/06 03:00:56;;;;;;;9.30;7.37;;;22.20;47.40;;;;;;4953563;29;20466;-79
2023/05/06 03:03:24;;;;;;;10.40;7.63;;;22.10;47.50;;;;;;4950603;29;20477;-78
2023/05/06 03:05:54;;;;;;;10.40;7.20;;;22.10;47.60;;;;;;4947740;29;20447;-79
2023/05/06 03:08:21;;;;;;;8.60;6.87;;;22.20;47.50;;;;;;4955930;29;20482;-77
2023/05/06 03:10:50;;;;;;;10.33;7.30;;;22.10;47.50;;;;;;4951807;29;20443;-79
2023/05/06 03:13:18;;;;;;;7.80;7.00;;;22.10;47.60;;;;;;4948261;29;20467;-78
2023/05/06 03:15:51;;;;;;;9.97;7.80;;;22.10;47.60;;;;;;4955190;28;20522;-79
2023/05/06 03:18:19;;;;;;;8.63;7.20;;;22.10;47.70;;;;;;4947738;28;20444;-79
2023/05/06 03:20:48;;;;;;;10.30;7.50;;;22.10;47.60;;;;;;4951007;29;20447;-78
2023/05/06 03:23:17;;;;;;;7.63;6.83;;;22.00;47.60;;;;;;4948638;29;20467;-78
2023/05/06 03:25:45;;;;;;;8.50;7.07;;;22.00;47.80;;;;;;4956206;29;20475;-77
2023/05/06 03:28:13;;;;;;;7.70;6.90;;;22.10;47.70;;;;;;4948600;29;20471;-78
2023/05/06 03:30:41;;;;;;;7.83;6.60;;;22.00;47.70;;;;;;4950991;28;20451;-78
2023/05/06 03:33:09;;;;;;;9.47;6.60;;;22.00;47.60;;;;;;4949274;29;20472;-79
2023/05/06 03:35:37;;;;;;;7.00;6.33;;;22.00;47.80;;;;;;4948396;29;20462;-79
2023/05/06 03:38:05;;;;;;;8.23;6.97;;;22.00;47.90;;;;;;4947937;29;20454;-78
2023/05/06 03:40:35;;;;;;;9.53;7.33;;;22.00;47.90;;;;;;4948118;29;20446;-79
2023/05/06 03:43:03;;;;;;;10.17;6.57;;;22.00;47.90;;;;;;4948521;29;20560;-79
2023/05/06 03:45:30;;;;;;;9.47;6.93;;;22.00;47.80;;;;;;4951277;29;20451;-78
2023/05/06 03:47:59;;;;;;;9.40;6.47;;;22.00;48.00;;;;;;4954145;29;20986;-79
2023/05/06 03:50:27;;;;;;;7.60;6.80;;;22.00;47.90;;;;;;4950692;29;20447;-79
2023/05/06 03:52:55;;;;;;;8.73;6.50;;;22.00;48.00;;;;;;4934648;29;20471;-78
2023/05/06 03:55:23;;;;;;;8.73;6.57;;;22.00;47.90;;;;;;4934969;29;20451;-78
2023/05/06 03:57:52;;;;;;;8.40;6.50;;;22.00;47.90;;;;;;4947320;29;20470;-78
2023/05/06 04:00:21;;;;;;;8.10;6.27;;;22.00;47.90;;;;;;4953440;28;20451;-78
2023/05/06 04:02:49;;;;;;;10.20;7.23;;;21.90;47.80;;;;;;4952440;29;20467;-78
2023/05/06 04:05:17;;;;;;;7.20;6.50;;;22.00;48.00;;;;;;4943644;29;20484;-79
2023/05/06 04:07:45;;;;;;;9.10;6.07;;;21.90;47.90;;;;;;4935291;29;20470;-78
2023/05/06 04:10:14;;;;;;;7.00;6.20;;;21.90;48.10;;;;;;4949477;29;20470;-78
2023/05/06 04:12:42;;;;;;;7.80;6.17;;;21.90;48.00;;;;;;4953036;29;21009;-79
2023/05/06 04:15:12;;;;;;;7.50;6.20;;;21.90;47.90;;;;;;4943971;29;20483;-78
2023/05/06 04:17:40;;;;;;;9.13;6.33;;;21.90;48.00;;;;;;4937862;29;20456;-79
2023/05/06 04:20:10;;;;;;;7.20;6.50;;;21.90;48.10;;;;;;4942889;29;20471;-79
2023/05/06 04:22:39;;;;;;;6.70;5.80;;;22.00;48.10;;;;;;4948245;28;20464;-78
2023/05/06 04:25:08;;;;;;;7.50;5.87;;;21.90;48.00;;;;;;4938812;29;20452;-79
2023/05/06 04:27:36;;;;;;;6.30;5.70;;;21.90;47.90;;;;;;4941010;29;20862;-78
2023/05/06 04:30:05;;;;;;;11.23;6.50;;;21.90;48.00;;;;;;4938293;29;20479;-78
2023/05/06 04:32:35;;;;;;;6.30;5.80;;;21.90;48.00;;;;;;4951776;29;20479;-78
2023/05/06 04:35:03;;;;;;;6.53;5.70;;;22.00;48.10;;;;;;4950186;29;20469;-78
2023/05/06 04:37:32;;;;;;;6.73;5.37;;;22.00;48.10;;;;;;4949796;29;20460;-77
2023/05/06 04:40:01;;;;;;;7.47;6.37;;;22.00;48.00;;;;;;4956470;28;20451;-78
2023/05/06 04:42:31;;;;;;;8.13;5.70;;;22.00;48.00;;;;;;4956264;29;20475;-78
2023/05/06 04:44:58;;;;;;;8.00;5.93;;;21.90;47.90;;;;;;4936995;29;20448;-78
2023/05/06 04:47:27;;;;;;;6.50;5.70;;;21.90;48.00;;;;;;4951291;28;20526;-78
2023/05/06 04:49:56;;;;;;;7.07;5.97;;;21.90;48.00;;;;;;4945594;29;20482;-78
2023/05/06 04:52:25;;;;;;;6.10;5.20;;;22.00;48.10;;;;;;4937094;29;20468;-77
2023/05/06 04:54:52;;;;;;;5.93;5.30;;;22.00;48.00;;;;;;4937733;29;20452;-78
2023/05/06 04:57:21;;;;;;;7.00;6.07;;;22.00;48.00;;;;;;4952766;29;20462;-78
2023/05/06 04:59:49;;;;;;;8.60;6.20;;;22.00;48.00;;;;;;4958042;28;20470;-76
2023/05/06 05:02:17;;;;;;;6.00;5.40;;;22.00;48.00;;;;;;4944394;29;20468;-78
2023/05/06 05:04:45;;;;;;;6.67;5.53;;;22.00;48.00;;;;;;4938694;29;20519;-78
2023/05/06 05:07:15;;;;;;;6.90;5.60;;;22.00;47.90;;;;;;4955137;29;20462;-78
2023/05/06 05:09:42;;;;;;;6.53;5.50;;;22.00;48.00;;;;;;4939914;29;20488;-78
2023/05/06 05:12:11;;;;;;;5.63;5.13;;;22.00;48.00;;;;;;4938151;29;20474;-78
2023/05/06 05:14:39;;;;;;;5.60;4.73;;;22.10;48.00;;;;;;4937389;29;20459;-78
2023/05/06 05:17:07;;;;;;;5.40;4.90;;;22.00;47.80;;;;;;4937209;29;20463;-78
2023/05/06 05:19:36;;;;;;;5.87;5.30;;;22.00;48.00;;;;;;4941526;29;20539;-78
2023/05/06 05:22:04;;;;;;;5.40;4.90;;;22.00;47.90;;;;;;4947773;28;20490;-75
2023/05/06 05:24:33;;;;;;;6.10;5.13;;;22.00;48.00;;;;;;4947550;29;20456;-79
2023/05/06 05:27:01;;;;;;;6.10;5.33;;;22.00;47.90;;;;;;4938296;29;20456;-79
2023/05/06 05:29:29;;;;;;;5.93;5.33;;;22.00;48.40;;;;;;4938371;29;20487;-78
2023/05/06 05:31:57;;;;;;;5.30;4.90;;;22.00;48.00;;;;;;4937671;29;20467;-77
2023/05/06 05:34:26;;;;;;;6.10;5.50;;;22.00;48.00;;;;;;4939971;29;20452;-78
2023/05/06 05:36:54;;;;;;;5.23;4.77;;;22.00;48.00;;;;;;4937645;29;20451;-77
2023/05/06 05:39:22;;;;;;;5.67;4.93;;;22.00;48.10;;;;;;4950010;29;20458;-78
2023/05/06 05:41:52;;;;;;;5.10;4.70;;;22.10;48.00;;;;;;4936899;29;20480;-77
2023/05/06 05:44:20;;;;;;;5.73;5.17;;;22.10;47.90;;;;;;4936371;29;20458;-78
2023/05/06 05:46:49;;;;;;;5.40;4.97;;;22.10;47.90;;;;;;4942503;29;20447;-78
2023/05/06 05:49:18;;;;;;;5.57;5.07;;;22.10;48.00;;;;;;4935768;29;20483;-77
2023/05/06 05:51:46;;;;;;;7.20;4.90;;;22.10;48.10;;;;;;4953279;29;20475;-78
2023/05/06 05:54:15;;;;;;;5.27;4.57;;;22.10;48.00;;;;;;4946726;28;20459;-77
2023/05/06 05:56:43;;;;;;;5.30;4.90;;;22.10;47.90;;;;;;4948302;29;20449;-79
2023/05/06 05:59:13;;;;;;;5.87;5.10;;;22.10;47.90;;;;;;4956101;28;20447;-78
2023/05/06 06:01:41;;;;;;;5.30;4.80;;;22.10;47.90;;;;;;4952935;29;20467;-78
2023/05/06 06:04:09;;;;;;;5.23;4.73;;;22.10;48.10;;;;;;4935657;29;20454;-78
2023/05/06 06:06:37;;;;;;;5.67;5.03;;;22.10;47.90;;;;;;4937650;29;20467;-78
2023/05/06 06:09:06;;;;;;;5.80;5.30;;;22.10;48.00;;;;;;4940671;29;20463;-78
2023/05/06 06:11:34;;;;;;;6.13;4.90;;;22.10;47.90;;;;;;4939149;29;20473;-75
2023/05/06 06:14:02;;;;;;;5.33;4.83;;;22.10;48.00;;;;;;4933565;29;20444;-77
2023/05/06 06:16:31;;;;;;;5.53;4.20;;;22.10;48.00;;;;;;4934112;29;20455;-78
2023/05/06 06:19:00;;;;;;;5.57;5.07;;;22.20;48.00;;;;;;4936835;29;20451;-78
2023/05/06 06:21:27;;;;;;;6.63;4.67;;;22.20;47.90;;;;;;4945806;29;20450;-77
2023/05/06 06:23:56;;;;;;;5.10;4.60;;;22.20;48.00;;;;;;4934479;29;20477;-77
2023/05/06 06:26:23;;;;;;;4.63;4.20;;;22.20;48.00;;;;;;4945351;29;20443;-77
2023/05/06 06:28:52;;;;;;;4.70;4.30;;;22.20;47.90;;;;;;4939110;28;21095;-78
2023/05/06 06:31:20;;;;;;;5.00;4.50;;;22.30;48.00;;;;;;4934223;29;20486;-78
2023/05/06 06:33:50;;;;;;;5.10;4.60;;;22.30;48.00;;;;;;4933710;29;20456;-77
2023/05/06 06:36:17;;;;;;;5.53;4.90;;;22.30;47.80;;;;;;4942758;29;20451;-78
2023/05/06 06:38:46;;;;;;;4.70;4.30;;;22.40;47.90;;;;;;4938088;29;20452;-78
2023/05/06 06:41:14;;;;;;;5.63;4.53;;;22.40;47.80;;;;;;4944304;28;20447;-78
2023/05/06 06:43:42;;;;;;;5.00;4.50;;;22.30;47.80;;;;;;4935623;29;20957;-78
2023/05/06 06:46:10;;;;;;;5.33;4.83;;;22.30;47.80;;;;;;4941329;28;20463;-78
2023/05/06 06:48:38;;;;;;;5.00;4.53;;;22.30;47.70;;;;;;4932993;29;20456;-78
2023/05/06 06:51:08;;;;;;;4.97;4.47;;;22.30;47.80;;;;;;4933596;29;20472;-78
2023/05/06 06:53:36;;;;;;;4.70;4.30;;;22.30;47.80;;;;;;4944493;29;20486;-77
2023/05/06 06:56:04;;;;;;;7.37;5.33;;;22.40;47.90;;;;;;4960494;29;20451;-77
2023/05/06 06:58:33;;;;;;;5.77;5.20;;;22.40;47.90;;;;;;4954137;29;20459;-78
2023/05/06 07:01:01;;;;;;;5.20;4.80;;;22.40;47.80;;;;;;4941038;29;20448;-79
2023/05/06 07:03:29;;;;;;;4.97;4.63;;;22.40;48.00;;;;;;4943203;29;20476;-79
2023/05/06 07:05:57;;;;;;;5.50;5.07;;;22.40;47.80;;;;;;4951066;29;20459;-78
2023/05/06 07:08:26;;;;;;;5.73;4.90;;;22.40;47.90;;;;;;4954537;29;20443;-79
2023/05/06 07:10:55;;;;;;;4.97;4.57;;;22.40;47.90;;;;;;4952892;29;20475;-78
2023/05/06 07:13:23;;;;;;;5.33;4.83;;;22.40;47.70;;;;;;4954133;29;20566;-78
2023/05/06 07:15:51;;;;;;;5.47;4.73;;;22.40;47.90;;;;;;4952467;29;20503;-79
2023/05/06 07:18:19;;;;;;;6.30;5.27;;;22.50;48.00;;;;;;4936865;29;20456;-79
2023/05/06 07:20:48;;;;;;;4.90;4.53;;;22.50;47.80;;;;;;4935973;29;20440;-79
2023/05/06 07:23:16;;;;;;;5.70;5.20;;;22.60;47.90;;;;;;4940190;29;20472;-79
2023/05/06 07:25:45;;;;;;;5.07;4.67;;;22.60;47.70;;;;;;4936915;29;20474;-79
2023/05/06 07:28:14;;;;;;;5.03;4.60;;;22.70;47.90;;;;;;4935138;29;20456;-77
2023/05/06 07:30:42;;;;;;;5.73;4.43;;;22.70;47.60;;;;;;4934622;29;20472;-79
2023/05/06 07:33:10;;;;;;;5.00;4.50;;;22.80;47.70;;;;;;4935333;29;20487;-79
2023/05/06 07:35:38;;;;;;;4.33;4.03;;;22.90;47.80;;;;;;4935385;29;20448;-79
2023/05/06 07:38:06;;;;;;;4.80;4.50;;;23.00;47.70;;;;;;4934390;29;20449;-78
2023/05/06 07:40:34;;;;;;;4.80;4.50;;;23.10;47.50;;;;;;4943976;29;20455;-77
2023/05/06 07:43:04;;;;;;;4.43;4.03;;;23.10;47.30;;;;;;4944667;28;20475;-78
2023/05/06 07:45:32;;;;;;;4.50;4.23;;;23.20;47.20;;;;;;4948323;28;20454;-78
2023/05/06 07:48:00;;;;;;;4.53;4.13;;;23.20;47.30;;;;;;4940362;29;20454;-76
2023/05/06 07:50:28;;;;;;;5.23;4.73;;;23.20;47.20;;;;;;4941721;28;20471;-77
2023/05/06 07:52:56;;;;;;;4.47;4.20;;;23.30;47.00;;;;;;4953488;29;20474;-78
2023/05/06 07:55:25;;;;;;;4.53;4.13;;;23.30;47.20;;;;;;4939153;29;20465;-78
2023/05/06 07:57:53;;;;;;;5.30;4.80;;;23.40;47.20;;;;;;4945819;29;20456;-77
2023/05/06 08:00:23;;;;;;;4.77;4.43;;;23.40;47.10;;;;;;4937299;29;20455;-78
2023/05/06 08:02:51;;;;;;;4.63;4.30;;;23.40;47.10;;;;;;4944484;29;20459;-75
2023/05/06 08:05:19;;;;;;;5.07;4.63;;;23.40;47.00;;;;;;4937106;29;20440;-77
2023/05/06 08:07:48;;;;;;;5.17;4.67;;;23.50;47.20;;;;;;4943550;29;20455;-78
2023/05/06 08:10:17;;;;;;;5.10;4.70;;;23.50;47.00;;;;;;4955197;29;20449;-78
2023/05/06 08:12:45;;;;;;;5.37;4.63;;;23.50;47.00;;;;;;4956168;29;20467;-78
2023/05/06 08:15:13;;;;;;;4.57;4.17;;;23.50;47.00;;;;;;4951703;29;20475;-78
2023/05/06 08:17:43;;;;;;;4.20;3.90;;;23.50;47.10;;;;;;4936949;29;20459;-78
2023/05/06 08:20:13;;;;;;;5.03;4.63;;;23.50;47.10;;;;;;4944309;29;20482;-78
2023/05/06 08:22:41;;;;;;;5.23;4.83;;;23.60;47.10;;;;;;4944419;29;20474;-75
2023/05/06 08:25:10;;;;;;;5.57;4.63;;;23.60;47.00;;;;;;4940266;29;20461;-75
2023/05/06 08:27:38;;;;;;;5.27;4.87;;;23.60;47.00;;;;;;4949903;29;20483;-77
2023/05/06 08:30:07;;;;;;;5.20;4.80;;;23.60;47.00;;;;;;4939692;29;20458;-78
2023/05/06 08:32:35;;;;;;;4.93;4.53;;;23.60;47.10;;;;;;4955575;28;20481;-77
2023/05/06 08:35:05;;;;;;;5.13;4.73;;;23.60;47.10;;;;;;4936807;29;20452;-78
2023/05/06 08:37:34;;;;;;;5.50;4.73;;;23.70;47.10;;;;;;4943538;29;20474;-75
2023/05/06 08:40:02;;;;;;;4.87;4.47;;;23.60;47.00;;;;;;4936928;29;20479;-76
2023/05/06 08:42:30;;;;;;;4.93;4.53;;;23.70;47.10;;;;;;4949591;29;20479;-78
2023/05/06 08:44:58;;;;;;;5.07;4.67;;;23.70;47.10;;;;;;4953543;29;20498;-78
2023/05/06 08:47:26;;;;;;;5.57;5.07;;;23.60;47.10;;;;;;4950172;29;20451;-78
2023/05/06 08:49:55;;;;;;;5.03;4.63;;;23.60;47.10;;;;;;4944348;29;20462;-76
2023/05/06 08:52:24;;;;;;;5.03;4.63;;;23.60;47.30;;;;;;4944630;29;20476;-75
2023/05/06 08:54:53;;;;;;;5.67;5.20;;;23.60;47.20;;;;;;4935727;29;20471;-74
2023/05/06 08:57:21;;;;;;;5.17;4.73;;;23.70;47.40;;;;;;4935268;29;20506;-78
2023/05/06 08:59:50;;;;;;;5.30;4.80;;;23.60;47.20;;;;;;4936292;29;20452;-78
2023/05/06 09:02:18;;;;;;;5.00;4.60;;;23.70;47.20;;;;;;4948197;28;20471;-79
2023/05/06 09:04:46;;;;;;;5.33;4.90;;;23.70;47.30;;;;;;4953841;29;20455;-76
2023/05/06 09:07:14;;;;;;;6.77;5.33;;;23.70;47.30;;;;;;4945468;28;20455;-79
2023/05/06 09:09:44;;;;;;;6.07;5.10;;;23.70;47.40;;;;;;4947083;29;20451;-78
2023/05/06 09:12:12;;;;;;;5.13;4.73;;;23.70;47.30;;;;;;4943008;29;20483;-77
2023/05/06 09:14:40;;;;;;;5.37;4.87;;;23.80;47.60;;;;;;4939723;29;20453;-77
2023/05/06 09:17:22;;;;;;;5.20;4.80;;;23.80;47.40;;;;;;4943409;29;20451;-77
2023/05/06 09:19:52;;;;;;;6.30;4.87;;;23.90;47.20;;;;;;4948970;29;20455;-77
2023/05/06 09:22:21;;;;;;;5.03;4.53;;;23.90;47.20;;;;;;4951461;28;20554;-78
2023/05/06 09:24:55;;;;;;;5.50;5.00;;;24.10;47.20;;;;;;4952491;29;20443;-76
2023/05/06 09:27:24;;;;;;;4.67;4.30;;;24.20;47.30;;;;;;4954290;29;20427;-78
2023/05/06 09:30:02;;;;;;;5.77;5.00;;;24.30;47.10;;;;;;4953817;29;20454;-79
2023/05/06 09:32:31;;;;;;;4.90;4.50;;;24.30;46.80;;;;;;4954152;28;20478;-77
2023/05/06 09:34:59;;;;;;;6.07;5.10;;;24.30;46.80;;;;;;4949031;29;20475;-78
2023/05/06 09:37:27;;;;;;;4.60;4.20;;;24.20;46.80;;;;;;4951403;29;20463;-78
2023/05/06 09:39:57;;;;;;;5.50;5.00;;;24.20;47.00;;;;;;4953601;29;20514;-75
2023/05/06 09:42:26;;;;;;;5.13;4.77;;;24.30;47.20;;;;;;4953449;28;20497;-77
2023/05/06 09:44:55;;;;;;;4.70;4.33;;;24.30;47.00;;;;;;4945910;29;20957;-77
2023/05/06 09:47:25;;;;;;;8.33;4.97;;;24.40;47.00;;;;;;4950880;28;20456;-76
2023/05/06 09:49:56;;;;;;;5.00;4.60;;;24.50;47.00;;;;;;4939679;29;20542;-77
2023/05/06 09:52:24;;;;;;;5.40;4.90;;;24.50;46.80;;;;;;4935590;29;20483;-75
2023/05/06 09:54:52;;;;;;;5.50;4.83;;;24.50;46.90;;;;;;4948967;29;20459;-77
2023/05/06 09:57:23;;;;;;;5.53;5.03;;;24.60;46.90;;;;;;4950405;29;20450;-77
2023/05/06 09:59:52;;;;;;;5.90;5.40;;;24.60;46.80;;;;;;4945160;29;20452;-78
2023/05/06 10:02:20;;;;;;;6.63;5.90;;;24.80;47.10;;;;;;4935649;29;20468;-79
2023/05/06 10:04:48;;;;;;;6.30;5.60;;;25.00;46.80;;;;;;4953812;29;20451;-78
2023/05/06 10:07:21;;;;;;;6.70;6.00;;;25.10;46.50;;;;;;4937648;29;20452;-76
2023/05/06 10:09:50;;;;;;;8.70;5.97;;;25.10;46.40;;;;;;4935316;29;20452;-76
2023/05/06 10:12:19;;;;;;;7.03;6.33;;;25.10;46.50;;;;;;4942198;29;20476;-79
2023/05/06 10:14:48;;;;;;;8.27;5.83;;;25.10;46.60;;;;;;4943130;29;20455;-79
2023/05/06 10:17:16;;;;;;;7.03;6.33;;;25.10;46.50;;;;;;4944973;29;20451;-79
2023/05/06 10:19:45;;;;;;;7.40;6.57;;;25.20;46.80;;;;;;4943261;28;20458;-79
2023/05/06 10:22:18;;;;;;;7.87;6.90;;;25.40;46.60;;;;;;4943502;29;20476;-77
2023/05/06 10:24:48;;;;;;;10.13;8.07;;;25.70;46.30;;;;;;4942043;29;20464;-79
2023/05/06 10:27:17;;;;;;;10.47;8.60;;;25.80;45.90;;;;;;4947558;29;20521;-77
2023/05/06 10:29:46;;;;;;;13.60;8.77;;;25.80;45.80;;;;;;4951258;29;20455;-79
2023/05/06 10:32:15;;;;;;;11.73;8.77;;;25.70;45.80;;;;;;4948364;29;20513;-78
2023/05/06 10:34:51;;;;;;;18.83;9.10;;;25.70;46.20;;;;;;4956384;29;20527;-80
2023/05/06 10:37:19;;;;;;;21.77;9.70;;;25.60;46.20;;;;;;4954674;29;20450;-78
2023/05/06 10:39:47;;;;;;;10.73;8.90;;;25.70;46.40;;;;;;4953076;29;20432;-80
2023/05/06 10:42:17;;;;;;;15.83;9.87;;;25.80;46.50;;;;;;4958132;29;20487;-78
2023/05/06 10:45:07;;;;;;;16.47;9.60;;;26.00;46.40;;;;;;4956423;29;20530;-80
2023/05/06 10:48:10;;;;;;;17.73;10.10;;;26.30;46.10;;;;;;4953804;29;20459;-80
2023/05/06 10:50:38;;;;;;;13.67;9.90;;;26.40;45.80;;;;;;4956058;29;20531;-77
2023/05/06 10:53:06;;;;;;;14.50;9.57;;;26.40;45.70;;;;;;4951821;29;20490;-76
2023/05/06 10:55:35;;;;;;;14.47;10.50;;;26.40;45.70;;;;;;4948143;29;20450;-79
2023/05/06 10:58:03;;;;;;;19.07;11.30;;;26.40;45.70;;;;;;4958422;29;20447;-78
2023/05/06 11:00:32;;;;;;;19.10;10.50;;;26.40;45.60;;;;;;4953557;28;20462;-80
2023/05/06 11:03:05;;;;;;;14.63;10.97;;;26.40;45.80;;;;;;4952108;29;20480;-78
2023/05/06 11:05:46;;;;;;;19.60;10.97;;;26.50;45.80;;;;;;4950781;29;20456;-78
2023/05/06 11:08:14;;;;;;;15.80;11.50;;;26.60;45.80;;;;;;4951707;29;20442;-78
2023/05/06 11:10:42;;;;;;;14.83;10.93;;;26.80;45.70;;;;;;4957207;29;20454;-78
2023/05/06 11:13:21;;;;;;;17.30;11.33;;;27.10;45.70;;;;;;4957828;29;20479;-79
2023/05/06 11:15:50;;;;;;;18.77;11.30;;;27.40;45.20;;;;;;4957978;29;20466;-78
2023/05/06 11:18:41;;;;;;;20.60;12.20;;;27.50;44.60;;;;;;4953370;28;20508;-79
2023/05/06 11:21:39;;;;;;;17.30;11.50;;;27.50;44.50;;;;;;4957750;29;20533;-78
2023/05/06 11:24:09;;;;;;;20.87;11.90;;;27.50;44.40;;;;;;4957815;29;20474;-77
2023/05/06 11:26:37;;;;;;;22.17;12.20;;;27.40;44.60;;;;;;4955524;29;20465;-77
2023/05/06 11:29:06;;;;;;;20.77;12.40;;;27.30;44.70;;;;;;4957210;29;20422;-79
2023/05/06 11:31:41;;;;;;;20.70;12.40;;;27.20;44.90;;;;;;4958790;29;20481;-77
2023/05/06 11:34:13;;;;;;;21.73;12.43;;;27.20;44.90;;;;;;4951752;29;20460;-80
2023/05/06 11:37:02;;;;;;;18.30;11.73;;;27.30;45.10;;;;;;4966134;29;20845;-77
2023/05/06 11:39:30;;;;;;;19.20;13.23;;;27.80;44.70;;;;;;4960063;29;20433;-79
2023/05/06 11:42:06;;;;;;;17.77;12.30;;;27.80;44.30;;;;;;4963535;29;20457;-79
2023/05/06 11:44:35;;;;;;;22.50;12.97;;;27.70;44.30;;;;;;4960216;29;20466;-79
2023/05/06 11:47:04;;;;;;;18.33;11.97;;;27.70;44.60;;;;;;4961630;28;20483;-80
2023/05/06 11:49:37;;;;;;;19.50;12.40;;;27.70;44.60;;;;;;4963297;29;20539;-79
2023/05/06 11:52:07;;;;;;;21.33;12.47;;;27.80;44.60;;;;;;4949909;29;20519;-79
2023/05/06 11:54:36;;;;;;;22.57;12.40;;;27.80;44.40;;;;;;4962771;29;20454;-79
2023/05/06 11:57:04;;;;;;;20.57;13.10;;;27.70;44.60;;;;;;4953690;29;20459;-77
2023/05/06 11:59:33;;;;;;;22.17;14.03;;;27.70;44.70;;;;;;4959086;29;20454;-80
2023/05/06 12:02:02;;;;;;;22.03;13.93;;;27.80;45.00;;;;;;4964458;28;20478;-78
2023/05/06 12:04:37;;;;;;;29.97;14.20;;;28.30;44.00;;;;;;4955778;29;20423;-81
2023/05/06 12:07:07;;;;;;;36.20;12.17;;;28.30;43.60;;;;;;4961695;29;20456;-76
2023/05/06 12:09:35;;;;;;;21.33;13.27;;;28.60;44.10;;;;;;4961298;28;20445;-79
2023/05/06 12:12:04;;;;;;;21.97;13.13;;;28.50;43.20;;;;;;4962876;29;20487;-79
2023/05/06 12:14:33;;;;;;;22.00;13.40;;;28.30;43.50;;;;;;4953349;29;20450;-78
2023/05/06 12:17:03;;;;;;;22.00;13.50;;;28.20;43.70;;;;;;4960468;29;20455;-82
2023/05/06 12:19:31;;;;;;;19.33;13.37;;;28.10;44.00;;;;;;4954037;29;20513;-82
2023/05/06 12:25:29;;;;;;;19.60;11.33;;;27.70;44.40;;;;;;4950570;29;20426;-80
2023/05/06 12:27:58;;;;;;;11.33;9.10;;;27.70;44.80;;;;;;4962641;29;20592;-80
2023/05/06 12:30:31;;;;;;;12.93;8.90;;;29.80;42.60;;;;;;4958694;29;20459;-81
2023/05/06 12:33:00;;;;;;;8.20;7.37;;;31.00;41.40;;;;;;4958040;29;20919;-81
2023/05/06 12:35:31;;;;;;;8.40;7.60;;;32.70;38.10;;;;;;4952295;29;20471;-82
2023/05/06 12:38:09;;;;;;;9.50;8.60;;;33.00;34.70;;;;;;4952664;29;20455;-81
2023/05/06 12:40:43;;;;;;;9.03;7.90;;;32.00;34.10;;;;;;4961839;29;20524;-82
2023/05/06 12:43:15;;;;;;;14.73;8.57;;;30.80;36.90;;;;;;4957736;29;20911;-82
2023/05/06 12:46:02;;;;;;;10.53;8.17;;;31.20;38.60;;;;;;4951929;29;20463;-84
2023/05/06 12:48:30;;;;;;;9.53;7.90;;;30.30;37.40;;;;;;4952789;29;20470;-82
2023/05/06 12:50:58;;;;;;;9.63;8.50;;;29.40;38.60;;;;;;4952993;29;20542;-83
2023/05/06 12:53:34;;;;;;;12.10;7.87;;;28.50;39.90;;;;;;4952164;28;20450;-83
2023/05/06 12:56:02;;;;;;;12.47;8.90;;;27.90;41.10;;;;;;4957372;29;20522;-83